Time;durP1;ratioP1;P1;durP2;ratioP2;P2;SDS_P1;SDS_P2;PMS_P1;PMS_P2;Temp;Humidity;BMP_temperature;BMP_pressure;BME280_temperature;BME280_humidity;BME280_pressure;Samples;Min_cycle;Max_cycle;Signal;HPM_P1;HPM_P2
2022/08/03 00:01:34;;;;;;;1.85;1.75;;;19.20;99.90;;;;;;5056161;28;20044;-67
2022/08/03 00:03:59;;;;;;;2.35;1.60;;;19.30;99.90;;;;;;5048606;28;20044;-67
2022/08/03 00:06:25;;;;;;;2.42;2.22;;;19.30;99.90;;;;;;5038398;28;20065;-67
2022/08/03 00:08:51;;;;;;;4.38;1.80;;;19.30;99.90;;;;;;5054466;28;20028;-67
2022/08/03 00:11:16;;;;;;;2.15;1.95;;;19.30;99.90;;;;;;5054708;28;20477;-67
2022/08/03 00:13:42;;;;;;;1.65;1.55;;;19.30;99.90;;;;;;5050327;28;20041;-66
2022/08/03 00:16:09;;;;;;;1.85;1.60;;;19.20;99.90;;;;;;5054274;28;20051;-67
2022/08/03 00:18:35;;;;;;;4.20;1.50;;;19.20;99.90;;;;;;5057620;28;20033;-67
2022/08/03 00:21:02;;;;;;;2.08;1.67;;;19.20;99.90;;;;;;5053141;28;20036;-67
2022/08/03 00:23:28;;;;;;;4.25;1.98;;;19.20;99.90;;;;;;5055260;28;20043;-66
2022/08/03 00:25:54;;;;;;;1.80;1.70;;;19.10;99.90;;;;;;5052850;28;20036;-66
2022/08/03 00:28:19;;;;;;;1.88;1.77;;;19.10;99.90;;;;;;5056191;28;20129;-67
2022/08/03 00:30:45;;;;;;;2.25;2.05;;;19.10;99.90;;;;;;5058315;28;20055;-67
2022/08/03 00:33:10;;;;;;;3.03;1.73;;;19.00;99.90;;;;;;5050966;28;20913;-67
2022/08/03 00:35:36;;;;;;;3.70;2.33;;;19.10;99.90;;;;;;5053104;28;20028;-67
2022/08/03 00:38:02;;;;;;;1.83;1.63;;;19.10;99.90;;;;;;5051520;28;20036;-67
2022/08/03 00:40:28;;;;;;;1.90;1.80;;;19.10;99.90;;;;;;5053440;28;20044;-67
2022/08/03 00:42:57;;;;;;;4.03;1.75;;;19.10;99.90;;;;;;5054034;28;20093;-67
2022/08/03 00:45:29;;;;;;;1.80;1.70;;;19.10;99.90;;;;;;5051759;28;20033;-66
2022/08/03 00:47:55;;;;;;;3.08;2.08;;;19.10;99.90;;;;;;5057293;28;20172;-67
2022/08/03 00:50:22;;;;;;;4.75;2.10;;;19.00;99.90;;;;;;5051965;28;20036;-67
2022/08/03 00:52:53;;;;;;;2.28;2.08;;;19.00;99.90;;;;;;5051737;28;20033;-67
2022/08/03 00:55:19;;;;;;;3.55;1.95;;;18.90;99.90;;;;;;5054926;28;20045;-67
2022/08/03 00:57:46;;;;;;;3.50;2.03;;;18.90;99.90;;;;;;5057207;28;20374;-67
2022/08/03 01:00:14;;;;;;;2.60;2.40;;;18.90;99.90;;;;;;5053657;28;20781;-67
2022/08/03 01:02:40;;;;;;;2.55;1.52;;;18.80;99.90;;;;;;5052282;28;20025;-67
2022/08/03 01:05:06;;;;;;;3.38;1.80;;;18.80;99.90;;;;;;5048620;28;20477;-67
2022/08/03 01:07:34;;;;;;;3.58;1.75;;;18.70;99.90;;;;;;5057451;28;20051;-67
2022/08/03 01:10:00;;;;;;;2.20;2.00;;;18.60;99.90;;;;;;5052711;28;20106;-67
2022/08/03 01:13:10;;;;;;;2.15;2.05;;;18.60;99.90;;;;;;5053584;28;20029;-67
2022/08/03 01:16:21;;;;;;;3.35;2.08;;;18.60;99.90;;;;;;5030671;28;20467;-67
2022/08/03 01:19:35;;;;;;;2.72;1.80;;;18.60;99.90;;;;;;5035007;28;20576;-67
2022/08/03 01:22:39;;;;;;;1.98;1.88;;;18.50;99.90;;;;;;5031500;28;20049;-67
2022/08/03 01:25:47;;;;;;;3.15;2.13;;;18.40;99.90;;;;;;5051020;28;20396;-67
2022/08/03 01:28:25;;;;;;;2.10;2.00;;;18.30;99.90;;;;;;5043235;28;20043;-67
2022/08/03 01:30:55;;;;;;;2.10;2.00;;;18.20;99.90;;;;;;5050910;28;20501;-67
2022/08/03 01:33:27;;;;;;;3.35;2.20;;;18.20;99.90;;;;;;5058322;28;20039;-67
2022/08/03 01:35:58;;;;;;;5.22;2.30;;;18.20;99.90;;;;;;5051763;28;20500;-67
2022/08/03 01:38:29;;;;;;;3.25;2.47;;;18.10;99.90;;;;;;5047833;28;20049;-67
2022/08/03 01:40:56;;;;;;;2.40;2.20;;;18.10;99.90;;;;;;5056667;28;20049;-67
2022/08/03 01:43:28;;;;;;;3.85;2.10;;;18.10;99.90;;;;;;5059108;28;20067;-67
2022/08/03 01:45:56;;;;;;;4.30;2.20;;;18.20;99.90;;;;;;5058312;28;20062;-67
2022/08/03 01:48:23;;;;;;;2.28;2.17;;;18.20;99.90;;;;;;5059146;28;20037;-67
2022/08/03 01:50:53;;;;;;;2.85;2.22;;;18.30;99.90;;;;;;5057506;28;20479;-67
2022/08/03 01:53:21;;;;;;;3.42;2.45;;;18.30;99.90;;;;;;5059903;28;20040;-68
2022/08/03 01:55:52;;;;;;;2.70;2.30;;;18.20;99.90;;;;;;5050570;28;20040;-68
2022/08/03 01:58:21;;;;;;;2.40;2.30;;;18.20;99.90;;;;;;5057823;28;20084;-67
2022/08/03 02:00:49;;;;;;;4.38;2.42;;;18.20;99.90;;;;;;5054000;28;20429;-67
2022/08/03 02:03:17;;;;;;;2.80;2.60;;;18.20;99.90;;;;;;5047862;28;20036;-67
2022/08/03 02:05:44;;;;;;;3.17;2.35;;;18.10;99.90;;;;;;5051353;28;20036;-67
2022/08/03 02:08:15;;;;;;;3.40;2.60;;;18.20;99.90;;;;;;5052951;28;20043;-67
2022/08/03 02:10:45;;;;;;;3.97;2.40;;;18.30;99.90;;;;;;5049373;28;20040;-68
2022/08/03 02:13:14;;;;;;;4.43;2.50;;;18.20;99.90;;;;;;5050728;28;20086;-68
2022/08/03 02:15:42;;;;;;;2.47;1.90;;;18.30;99.90;;;;;;5052119;28;20042;-68
2022/08/03 02:18:10;;;;;;;2.47;2.17;;;18.10;99.90;;;;;;5051740;28;20068;-68
2022/08/03 02:20:39;;;;;;;3.03;2.40;;;18.00;99.90;;;;;;5050349;28;20951;-68
2022/08/03 02:23:06;;;;;;;2.05;1.95;;;18.00;99.90;;;;;;5050811;28;20063;-68
2022/08/03 02:25:49;;;;;;;2.25;2.10;;;18.00;99.90;;;;;;5053747;28;20035;-68
2022/08/03 02:28:21;;;;;;;2.90;2.70;;;18.00;99.90;;;;;;5040669;28;20028;-68
2022/08/03 02:30:52;;;;;;;5.32;3.63;;;18.10;99.90;;;;;;5051998;28;20033;-67
2022/08/03 02:33:41;;;;;;;3.00;2.40;;;18.10;99.90;;;;;;5054718;28;20048;-68
2022/08/03 02:36:10;;;;;;;2.17;1.98;;;18.10;99.90;;;;;;5056219;28;20858;-66
2022/08/03 02:38:41;;;;;;;2.60;2.40;;;18.10;99.90;;;;;;5055984;28;20033;-66
2022/08/03 02:41:14;;;;;;;4.60;2.70;;;18.10;99.90;;;;;;5057394;28;20040;-66
2022/08/03 02:43:45;;;;;;;2.53;2.33;;;18.00;99.90;;;;;;5056784;28;20056;-66
2022/08/03 02:46:13;;;;;;;2.83;2.63;;;18.10;99.90;;;;;;5054506;28;20025;-66
2022/08/03 02:48:41;;;;;;;2.70;2.50;;;18.00;99.90;;;;;;5052851;28;20520;-66
2022/08/03 02:51:08;;;;;;;4.78;2.63;;;17.80;99.90;;;;;;5036159;28;20056;-66
2022/08/03 02:53:36;;;;;;;2.58;2.38;;;17.80;99.90;;;;;;5058725;28;20037;-66
2022/08/03 02:56:04;;;;;;;2.70;2.50;;;17.90;99.90;;;;;;5054599;28;20551;-66
2022/08/03 02:58:31;;;;;;;2.10;2.00;;;18.00;99.90;;;;;;5058465;28;20459;-66
2022/08/03 03:00:58;;;;;;;2.80;2.60;;;18.00;99.90;;;;;;5054125;28;20128;-66
2022/08/03 03:03:25;;;;;;;3.15;2.53;;;18.00;99.90;;;;;;5054001;28;20029;-66
2022/08/03 03:05:52;;;;;;;4.70;2.58;;;17.90;99.90;;;;;;5053274;28;20044;-66
2022/08/03 03:08:20;;;;;;;2.28;2.08;;;17.90;99.90;;;;;;5053138;28;20039;-65
2022/08/03 03:10:47;;;;;;;3.00;2.80;;;17.80;99.90;;;;;;5056255;28;20029;-66
2022/08/03 03:13:14;;;;;;;2.80;2.30;;;17.80;99.90;;;;;;5057103;28;20048;-66
2022/08/03 03:15:42;;;;;;;2.60;2.40;;;17.90;99.90;;;;;;5054802;28;20037;-65
2022/08/03 03:18:08;;;;;;;3.33;2.33;;;17.80;99.90;;;;;;5059254;28;20601;-66
2022/08/03 03:20:36;;;;;;;2.42;2.17;;;17.80;99.90;;;;;;5054477;28;20100;-66
2022/08/03 03:23:04;;;;;;;3.80;2.60;;;17.90;99.90;;;;;;5031176;28;20036;-65
2022/08/03 03:25:33;;;;;;;2.63;2.40;;;17.90;99.90;;;;;;5056517;28;20036;-66
2022/08/03 03:27:59;;;;;;;2.75;2.47;;;17.80;99.90;;;;;;5052803;28;20393;-66
2022/08/03 03:30:25;;;;;;;3.50;2.17;;;17.70;99.90;;;;;;5036377;28;20032;-66
2022/08/03 03:32:51;;;;;;;3.10;2.17;;;17.60;99.90;;;;;;5058474;28;20574;-66
2022/08/03 03:35:17;;;;;;;2.75;2.40;;;17.70;99.90;;;;;;5051084;28;20044;-66
2022/08/03 03:37:43;;;;;;;2.72;2.10;;;17.60;99.90;;;;;;5055976;28;20037;-66
2022/08/03 03:40:09;;;;;;;2.55;2.35;;;17.60;99.90;;;;;;5056007;28;20032;-66
2022/08/03 03:42:37;;;;;;;2.85;2.15;;;17.60;99.90;;;;;;5057984;28;20558;-65
2022/08/03 03:45:05;;;;;;;2.53;2.25;;;17.60;99.90;;;;;;5047752;28;20093;-66
2022/08/03 03:47:33;;;;;;;2.22;2.13;;;17.60;99.90;;;;;;5057348;28;20037;-66
2022/08/03 03:50:00;;;;;;;24.90;3.78;;;17.60;99.90;;;;;;5053064;28;20582;-66
2022/08/03 03:52:26;;;;;;;2.45;2.20;;;17.60;99.90;;;;;;5059054;28;20032;-66
2022/08/03 03:54:51;;;;;;;2.03;1.92;;;17.60;99.90;;;;;;5057418;28;20037;-65
2022/08/03 03:57:17;;;;;;;3.78;2.58;;;17.70;99.90;;;;;;5054834;28;20040;-65
2022/08/03 03:59:43;;;;;;;4.50;2.30;;;17.60;99.90;;;;;;5055488;28;20378;-65
2022/08/03 04:02:10;;;;;;;3.20;2.70;;;17.60;99.90;;;;;;5050436;28;20049;-65
2022/08/03 04:13:05;;;;;;;2.60;2.40;;;17.60;99.90;;;;;;5057459;28;20757;-66
2022/08/03 04:15:32;;;;;;;2.40;2.22;;;17.70;99.90;;;;;;5056592;28;20040;-66
2022/08/03 04:17:58;;;;;;;2.55;2.35;;;17.80;99.90;;;;;;5044614;28;20663;-66
2022/08/03 04:20:29;;;;;;;3.00;2.70;;;17.80;99.90;;;;;;5057363;28;20051;-65
2022/08/03 04:22:56;;;;;;;3.05;2.85;;;17.90;99.90;;;;;;5037014;28;20557;-65
2022/08/03 04:25:25;;;;;;;3.45;2.60;;;17.90;99.90;;;;;;5056733;28;20240;-65
2022/08/03 04:27:54;;;;;;;3.20;2.90;;;17.90;99.90;;;;;;5052270;28;20040;-66
2022/08/03 04:30:21;;;;;;;3.50;2.72;;;18.00;99.90;;;;;;5053813;28;20039;-66
2022/08/03 04:32:50;;;;;;;4.00;2.53;;;18.00;99.90;;;;;;5036586;28;20544;-66
2022/08/03 04:35:17;;;;;;;2.90;2.70;;;18.00;99.90;;;;;;5051473;28;20025;-65
2022/08/03 04:37:46;;;;;;;3.63;2.75;;;18.00;99.90;;;;;;5053673;28;20386;-66
2022/08/03 04:40:21;;;;;;;4.80;3.40;;;18.00;99.90;;;;;;5052591;28;20740;-66
2022/08/03 04:42:49;;;;;;;5.38;3.63;;;18.00;99.90;;;;;;5056602;28;20041;-66
2022/08/03 04:45:16;;;;;;;5.78;2.95;;;18.10;99.90;;;;;;5051878;28;20040;-66
2022/08/03 04:47:42;;;;;;;4.55;3.05;;;18.20;99.90;;;;;;5057805;28;20025;-66
2022/08/03 04:50:08;;;;;;;5.30;3.13;;;18.20;99.90;;;;;;5050425;28;20040;-66
2022/08/03 04:52:35;;;;;;;3.55;3.22;;;18.30;99.90;;;;;;5052104;28;20048;-66
2022/08/03 04:55:00;;;;;;;3.75;3.20;;;18.30;99.90;;;;;;5056216;28;20048;-65
2022/08/03 04:57:26;;;;;;;6.45;3.83;;;18.40;99.90;;;;;;5057146;28;20041;-66
2022/08/03 04:59:53;;;;;;;3.42;3.03;;;18.40;99.90;;;;;;5037297;28;20040;-65
2022/08/03 05:02:20;;;;;;;4.85;3.70;;;18.50;99.90;;;;;;5053342;28;20060;-66
2022/08/03 05:04:46;;;;;;;3.50;3.20;;;18.70;99.90;;;;;;5053051;28;20040;-65
2022/08/03 05:07:12;;;;;;;7.03;3.45;;;18.80;99.90;;;;;;5052809;28;20033;-66
2022/08/03 05:09:38;;;;;;;3.28;3.08;;;19.00;99.90;;;;;;5054820;28;20036;-65
2022/08/03 05:12:05;;;;;;;4.05;3.33;;;19.10;99.90;;;;;;5055128;28;20095;-65
2022/08/03 05:14:31;;;;;;;4.25;3.63;;;19.20;99.90;;;;;;5043844;28;20047;-66
2022/08/03 05:16:57;;;;;;;3.58;3.30;;;19.30;99.90;;;;;;5053010;28;20581;-66
2022/08/03 05:19:22;;;;;;;3.92;3.60;;;19.40;99.90;;;;;;5058261;28;20051;-65
2022/08/03 05:21:48;;;;;;;3.85;3.50;;;19.50;99.90;;;;;;5055477;28;20400;-66
2022/08/03 05:24:14;;;;;;;6.38;4.20;;;19.60;99.90;;;;;;5054569;28;20112;-66
2022/08/03 05:26:40;;;;;;;4.38;3.95;;;19.60;99.90;;;;;;5051327;28;20043;-66
2022/08/03 05:29:06;;;;;;;4.57;4.00;;;19.70;99.90;;;;;;5058597;28;20412;-66
2022/08/03 05:31:31;;;;;;;4.93;3.58;;;19.70;99.90;;;;;;5045970;28;20025;-65
2022/08/03 05:33:57;;;;;;;7.68;3.72;;;19.80;99.90;;;;;;5057634;28;20044;-66
2022/08/03 05:36:22;;;;;;;5.75;4.00;;;19.90;99.90;;;;;;5055860;28;20029;-65
2022/08/03 05:38:48;;;;;;;5.07;3.80;;;19.90;99.90;;;;;;5057482;28;20044;-66
2022/08/03 05:41:14;;;;;;;8.45;4.07;;;20.00;99.90;;;;;;5058644;28;20486;-66
2022/08/03 05:43:39;;;;;;;11.18;4.10;;;20.10;99.90;;;;;;5055268;28;20064;-65
2022/08/03 05:46:05;;;;;;;5.85;3.40;;;20.30;99.90;;;;;;5054751;28;20119;-66
2022/08/03 05:48:30;;;;;;;4.35;3.95;;;20.40;99.90;;;;;;5057612;28;20033;-65
2022/08/03 05:50:56;;;;;;;5.05;3.85;;;20.50;99.90;;;;;;5053191;28;20044;-66
2022/08/03 05:53:22;;;;;;;4.03;3.67;;;20.60;99.90;;;;;;5056740;28;20048;-66
2022/08/03 05:55:47;;;;;;;5.03;4.00;;;20.70;99.90;;;;;;5052308;28;20044;-66
2022/08/03 05:58:13;;;;;;;5.18;3.95;;;20.90;99.90;;;;;;5057937;28;20048;-65
2022/08/03 06:00:38;;;;;;;12.18;4.10;;;21.00;99.90;;;;;;5052222;28;20048;-66
2022/08/03 06:03:04;;;;;;;4.90;4.13;;;21.10;99.90;;;;;;5054516;28;20025;-66
2022/08/03 06:05:31;;;;;;;5.05;3.85;;;21.20;99.90;;;;;;5056096;28;20028;-65
2022/08/03 06:07:57;;;;;;;4.30;3.90;;;21.40;99.90;;;;;;5047836;28;20344;-65
2022/08/03 06:10:22;;;;;;;3.97;3.67;;;21.50;99.90;;;;;;5052972;28;20041;-66
2022/08/03 06:12:49;;;;;;;4.72;4.20;;;21.70;99.90;;;;;;5057942;28;20079;-66
2022/08/03 06:15:15;;;;;;;4.90;4.40;;;21.90;99.90;;;;;;5038742;28;20044;-66
2022/08/03 06:17:48;;;;;;;4.03;3.72;;;22.10;99.90;;;;;;5058195;28;20044;-66
2022/08/03 06:20:18;;;;;;;4.35;3.95;;;22.20;99.90;;;;;;5057426;28;20051;-66
2022/08/03 06:22:45;;;;;;;4.30;3.90;;;22.40;99.90;;;;;;5060301;28;20032;-66
2022/08/03 06:25:11;;;;;;;4.22;3.85;;;22.50;99.90;;;;;;5057656;28;20040;-66
2022/08/03 06:27:38;;;;;;;6.80;4.20;;;22.60;99.90;;;;;;5056488;28;20281;-66
2022/08/03 06:30:07;;;;;;;4.25;3.88;;;22.80;99.90;;;;;;5058245;28;20033;-66
2022/08/03 06:32:33;;;;;;;5.07;4.10;;;22.90;99.90;;;;;;5058681;28;20032;-66
2022/08/03 06:34:59;;;;;;;4.18;3.85;;;23.00;99.90;;;;;;5056887;28;20041;-68
2022/08/03 06:37:25;;;;;;;4.65;4.28;;;23.20;99.90;;;;;;5051854;28;20531;-68
2022/08/03 06:39:53;;;;;;;4.32;3.92;;;23.30;99.90;;;;;;5056022;28;20484;-68
2022/08/03 06:42:18;;;;;;;6.03;4.20;;;23.40;99.90;;;;;;5053443;28;20036;-68
2022/08/03 06:44:44;;;;;;;4.65;4.25;;;23.50;99.90;;;;;;5055577;28;20025;-68
2022/08/03 06:47:10;;;;;;;4.55;4.10;;;23.60;99.90;;;;;;5054684;28;20382;-68
2022/08/03 06:49:35;;;;;;;4.28;3.88;;;23.70;99.90;;;;;;5058056;28;20064;-68
2022/08/03 06:52:01;;;;;;;7.18;4.22;;;23.80;99.90;;;;;;5058241;28;20048;-69
2022/08/03 06:54:27;;;;;;;4.18;3.88;;;24.00;99.90;;;;;;5049810;28;20033;-68
2022/08/03 06:56:53;;;;;;;4.45;4.05;;;24.10;99.90;;;;;;5053805;28;20194;-67
2022/08/03 06:59:18;;;;;;;5.25;4.75;;;24.10;99.90;;;;;;5057791;28;20523;-67
2022/08/03 07:01:44;;;;;;;5.00;4.60;;;24.20;99.90;;;;;;5057257;28;20424;-67
2022/08/03 07:04:09;;;;;;;4.85;4.22;;;24.20;99.90;;;;;;5037219;28;20067;-67
2022/08/03 07:06:37;;;;;;;4.90;4.50;;;24.30;99.90;;;;;;5053694;28;20102;-66
2022/08/03 07:09:03;;;;;;;5.68;4.80;;;24.30;99.90;;;;;;5050947;28;20262;-67
2022/08/03 07:11:29;;;;;;;4.65;4.25;;;24.30;99.90;;;;;;5053584;28;20035;-66
2022/08/03 07:13:55;;;;;;;5.53;4.93;;;24.40;99.90;;;;;;5058186;28;20036;-67
2022/08/03 07:16:21;;;;;;;5.15;4.45;;;24.40;99.90;;;;;;5053111;28;20083;-66
2022/08/03 07:18:47;;;;;;;4.45;4.05;;;24.30;99.90;;;;;;5051191;28;20275;-66
2022/08/03 07:21:12;;;;;;;4.82;4.43;;;24.50;99.90;;;;;;5051105;28;20439;-66
2022/08/03 07:23:38;;;;;;;5.30;4.80;;;24.60;99.90;;;;;;5052115;28;20029;-67
2022/08/03 07:26:04;;;;;;;4.68;4.22;;;24.80;99.90;;;;;;5052201;28;20504;-67
2022/08/03 07:28:29;;;;;;;11.07;4.97;;;24.90;99.90;;;;;;5054545;28;20493;-67
2022/08/03 07:30:55;;;;;;;5.97;4.60;;;24.90;99.90;;;;;;5054736;28;20544;-67
2022/08/03 07:33:21;;;;;;;13.95;4.82;;;25.00;99.90;;;;;;5048533;28;20098;-67
2022/08/03 07:35:46;;;;;;;5.40;5.00;;;25.10;99.90;;;;;;5045192;28;20047;-70
2022/08/03 07:38:12;;;;;;;4.90;4.50;;;25.30;99.90;;;;;;5049562;28;20033;-70
2022/08/03 07:40:38;;;;;;;4.60;4.22;;;25.30;99.90;;;;;;5052748;28;20048;-69
2022/08/03 07:43:04;;;;;;;5.18;4.78;;;25.40;99.90;;;;;;5037057;28;20135;-69
2022/08/03 07:45:30;;;;;;;4.78;4.22;;;25.50;99.90;;;;;;5055420;28;20639;-69
2022/08/03 07:47:56;;;;;;;5.15;4.75;;;25.60;99.90;;;;;;5050138;28;20043;-70
2022/08/03 07:50:22;;;;;;;4.75;4.35;;;25.70;99.90;;;;;;5052335;28;20048;-69
2022/08/03 07:52:49;;;;;;;4.55;4.15;;;25.80;99.90;;;;;;5044728;28;23994;-69
2022/08/03 07:55:16;;;;;;;5.40;4.28;;;25.80;99.90;;;;;;5046976;28;20493;-69
2022/08/03 07:57:41;;;;;;;5.03;4.25;;;25.90;99.80;;;;;;5048696;28;20040;-64
2022/08/03 08:00:14;;;;;;;4.45;4.05;;;25.90;99.50;;;;;;5053785;28;20044;-64
2022/08/03 08:02:40;;;;;;;4.43;4.07;;;25.90;99.20;;;;;;5055139;28;20032;-64
2022/08/03 08:05:07;;;;;;;4.40;4.00;;;25.80;99.50;;;;;;5049315;28;20037;-64
2022/08/03 08:07:32;;;;;;;4.75;4.25;;;25.90;98.70;;;;;;5045880;28;20045;-64
2022/08/03 08:09:58;;;;;;;4.45;4.07;;;26.00;99.50;;;;;;5048048;28;20047;-64
2022/08/03 08:12:23;;;;;;;4.93;4.45;;;25.90;98.90;;;;;;5053128;28;20041;-64
2022/08/03 08:14:49;;;;;;;4.30;4.00;;;26.00;98.70;;;;;;5046339;28;21828;-64
2022/08/03 08:17:15;;;;;;;9.18;4.22;;;26.00;98.80;;;;;;5046766;28;20049;-64
2022/08/03 08:19:40;;;;;;;4.57;4.03;;;26.00;99.60;;;;;;5050482;28;21686;-64
2022/08/03 08:22:06;;;;;;;4.78;4.38;;;26.10;98.90;;;;;;5038839;28;20410;-64
2022/08/03 08:24:32;;;;;;;4.00;3.65;;;26.20;98.50;;;;;;5049957;28;20033;-64
2022/08/03 08:27:00;;;;;;;4.88;4.20;;;26.20;98.30;;;;;;5046897;28;20714;-64
2022/08/03 08:29:25;;;;;;;6.43;4.45;;;26.30;98.40;;;;;;5048126;28;20041;-64
2022/08/03 08:31:51;;;;;;;4.25;3.78;;;26.40;98.20;;;;;;5054904;28;20036;-68
2022/08/03 08:34:16;;;;;;;6.05;4.43;;;26.50;97.30;;;;;;5040524;28;20044;-67
2022/08/03 08:36:42;;;;;;;6.15;4.30;;;26.50;97.20;;;;;;5041317;28;20116;-68
2022/08/03 08:39:08;;;;;;;4.78;4.03;;;26.50;97.20;;;;;;5050021;28;20060;-67
2022/08/03 08:41:34;;;;;;;8.80;3.97;;;26.60;96.30;;;;;;5050707;28;20049;-67
2022/08/03 08:44:01;;;;;;;3.90;3.58;;;26.60;96.20;;;;;;5050844;28;20045;-68
2022/08/03 08:46:28;;;;;;;4.38;4.03;;;26.70;95.70;;;;;;5048475;28;20064;-67
2022/08/03 08:48:55;;;;;;;3.78;3.42;;;26.70;96.20;;;;;;5037296;28;20452;-67
2022/08/03 08:51:26;;;;;;;3.72;3.42;;;26.70;96.40;;;;;;5047874;28;20041;-69
2022/08/03 08:53:52;;;;;;;4.43;3.75;;;26.80;95.60;;;;;;5056207;28;20066;-68
2022/08/03 08:56:21;;;;;;;3.75;3.22;;;26.90;95.40;;;;;;5055238;28;20118;-67
2022/08/03 08:58:51;;;;;;;4.10;3.45;;;27.00;94.00;;;;;;5054316;28;20060;-68
2022/08/03 09:01:18;;;;;;;3.70;3.10;;;27.10;94.10;;;;;;5050529;28;20044;-69
2022/08/03 09:03:45;;;;;;;3.38;3.10;;;27.20;92.90;;;;;;5055914;28;20056;-67
2022/08/03 09:06:11;;;;;;;3.63;3.33;;;27.20;92.50;;;;;;5045871;28;20136;-67
2022/08/03 09:08:36;;;;;;;3.58;3.28;;;27.30;92.60;;;;;;5045219;28;20037;-67
2022/08/03 09:11:02;;;;;;;4.03;3.63;;;27.40;92.50;;;;;;5053886;28;20470;-67
2022/08/03 09:13:29;;;;;;;3.65;3.20;;;27.50;92.50;;;;;;5055028;28;20040;-67
2022/08/03 09:16:20;;;;;;;4.07;3.75;;;27.60;92.50;;;;;;5054870;28;20071;-68
2022/08/03 09:18:51;;;;;;;4.45;3.67;;;27.60;93.20;;;;;;5052080;28;20051;-67
2022/08/03 09:21:26;;;;;;;4.27;3.83;;;27.60;93.70;;;;;;5058854;28;20045;-67
2022/08/03 09:23:56;;;;;;;3.92;3.63;;;27.60;92.30;;;;;;5052130;28;21796;-67
2022/08/03 09:26:23;;;;;;;5.55;4.07;;;27.50;92.40;;;;;;5050117;28;20036;-67
2022/08/03 09:29:00;;;;;;;4.90;3.78;;;27.50;92.90;;;;;;5050179;28;20032;-68
2022/08/03 09:31:33;;;;;;;3.60;3.30;;;27.40;92.60;;;;;;5029865;28;20060;-66
2022/08/03 09:34:07;;;;;;;5.15;3.60;;;27.30;93.00;;;;;;5052419;28;20040;-67
2022/08/03 09:36:42;;;;;;;8.85;3.00;;;27.30;92.10;;;;;;5051442;28;20040;-67
2022/08/03 09:39:10;;;;;;;4.07;2.92;;;27.40;91.30;;;;;;5049489;28;20041;-67
2022/08/03 09:41:41;;;;;;;2.80;2.60;;;27.50;90.40;;;;;;5054931;28;20059;-66
2022/08/03 09:44:07;;;;;;;2.88;2.67;;;27.60;91.50;;;;;;5041426;28;20060;-67
2022/08/03 09:46:50;;;;;;;2.72;2.50;;;27.70;90.50;;;;;;5023634;28;20040;-67
2022/08/03 09:49:16;;;;;;;3.25;2.80;;;27.80;87.40;;;;;;5043133;28;20029;-66
2022/08/03 09:51:43;;;;;;;2.80;2.60;;;27.90;90.10;;;;;;5050653;28;20496;-67
2022/08/03 09:54:08;;;;;;;3.05;2.85;;;28.00;89.80;;;;;;5045782;28;20037;-68
2022/08/03 09:56:46;;;;;;;2.38;2.22;;;28.10;87.60;;;;;;5044740;28;20029;-67
2022/08/03 09:59:21;;;;;;;2.45;2.35;;;28.10;84.10;;;;;;5042736;28;20040;-64
2022/08/03 10:01:47;;;;;;;3.08;2.03;;;28.00;83.00;;;;;;5039018;28;20429;-67
2022/08/03 10:04:15;;;;;;;2.65;2.45;;;27.90;84.30;;;;;;5053132;28;20033;-67
2022/08/03 10:07:00;;;;;;;3.53;2.65;;;27.90;85.00;;;;;;5043412;28;20033;-67
2022/08/03 10:09:26;;;;;;;3.85;2.90;;;27.90;85.30;;;;;;5053191;28;20285;-66
2022/08/03 10:11:52;;;;;;;2.83;2.63;;;27.90;85.70;;;;;;5040338;28;20107;-66
2022/08/03 10:14:17;;;;;;;2.88;2.65;;;28.00;85.90;;;;;;5036662;28;20070;-66
2022/08/03 10:16:45;;;;;;;3.15;2.85;;;28.10;84.10;;;;;;5023624;28;20037;-66
2022/08/03 10:19:12;;;;;;;5.93;3.38;;;28.10;83.40;;;;;;5041385;28;20044;-67
2022/08/03 10:21:40;;;;;;;4.35;2.85;;;28.20;83.20;;;;;;5048974;28;20056;-67
2022/08/03 10:24:09;;;;;;;3.00;2.80;;;28.20;82.20;;;;;;5026347;28;20129;-65
2022/08/03 10:26:37;;;;;;;8.10;3.35;;;28.00;81.10;;;;;;5041367;28;20374;-66
2022/08/03 10:29:07;;;;;;;3.55;2.53;;;27.90;81.60;;;;;;5049410;28;20462;-65
2022/08/03 10:31:40;;;;;;;2.90;2.70;;;28.00;81.30;;;;;;5047625;28;20028;-66
2022/08/03 10:34:22;;;;;;;3.00;2.80;;;28.00;80.40;;;;;;5047668;28;20276;-66
2022/08/03 10:36:48;;;;;;;3.00;2.80;;;28.00;80.90;;;;;;5050284;28;20505;-67
2022/08/03 10:39:20;;;;;;;3.60;2.65;;;27.90;80.60;;;;;;5054381;28;20040;-67
2022/08/03 10:41:47;;;;;;;4.10;2.83;;;28.10;82.60;;;;;;5054733;28;21939;-66
2022/08/03 10:44:18;;;;;;;2.83;2.63;;;28.20;78.60;;;;;;5055200;28;21858;-66
2022/08/03 10:46:45;;;;;;;2.75;2.55;;;28.30;80.80;;;;;;5054322;28;20093;-66
2022/08/03 10:49:18;;;;;;;2.97;2.65;;;28.50;81.40;;;;;;5052404;28;20067;-66
2022/08/03 10:51:46;;;;;;;3.17;2.88;;;28.60;80.20;;;;;;5051957;28;20055;-66
2022/08/03 11:00:29;;;;;;;2.95;2.47;;;28.80;76.70;;;;;;5045676;28;20054;-69
2022/08/03 11:03:05;;;;;;;2.92;2.70;;;28.70;80.40;;;;;;5051182;28;20488;-69
2022/08/03 11:05:33;;;;;;;2.50;2.30;;;28.80;78.30;;;;;;5053958;28;20041;-70
2022/08/03 11:08:18;;;;;;;3.40;3.10;;;28.90;75.90;;;;;;5051058;28;20044;-69
2022/08/03 11:10:45;;;;;;;3.05;2.42;;;28.80;76.20;;;;;;5044363;28;20045;-65
2022/08/03 11:13:16;;;;;;;2.92;2.72;;;28.80;77.90;;;;;;5050086;28;20097;-65
2022/08/03 11:15:45;;;;;;;2.50;2.30;;;28.90;78.50;;;;;;5054831;28;20346;-66
2022/08/03 11:18:11;;;;;;;2.92;2.60;;;28.90;75.60;;;;;;5045880;28;20132;-66
2022/08/03 11:20:46;;;;;;;2.60;2.40;;;28.90;80.70;;;;;;5048581;28;20084;-66
2022/08/03 11:23:13;;;;;;;2.90;2.70;;;29.20;79.00;;;;;;5037746;28;20037;-65
2022/08/03 11:26:21;;;;;;;4.55;3.13;;;29.30;76.50;;;;;;5034925;28;20033;-64
2022/08/03 11:28:48;;;;;;;3.10;2.90;;;29.20;73.20;;;;;;5035007;28;20159;-65
2022/08/03 11:31:23;;;;;;;4.18;2.50;;;29.20;78.60;;;;;;5048133;28;20016;-65
2022/08/03 11:34:09;;;;;;;2.38;2.25;;;29.30;77.10;;;;;;5042099;28;20048;-65
2022/08/03 11:37:12;;;;;;;2.65;2.45;;;29.30;76.10;;;;;;5055368;28;20513;-66
2022/08/03 11:39:44;;;;;;;2.58;2.28;;;29.20;72.00;;;;;;5055528;28;20447;-65
2022/08/03 11:42:22;;;;;;;;;;;29.10;77.30;;;;;;5048511;28;20343;-65
2022/08/03 11:44:51;;;;;;;4.35;2.50;;;29.20;76.20;;;;;;5051265;28;19913;-65
2022/08/03 11:47:18;;;;;;;2.55;2.35;;;29.10;76.60;;;;;;5033168;28;20044;-65
2022/08/03 11:49:46;;;;;;;2.55;2.28;;;28.90;76.10;;;;;;5051617;28;20031;-66
2022/08/03 11:52:12;;;;;;;2.47;2.38;;;28.80;76.70;;;;;;5051673;28;20370;-66
2022/08/03 11:54:38;;;;;;;2.42;2.22;;;28.80;74.50;;;;;;5053217;28;20036;-66
2022/08/03 11:57:04;;;;;;;11.40;2.60;;;28.90;74.60;;;;;;5049980;28;20036;-65
2022/08/03 11:59:33;;;;;;;2.60;2.40;;;29.00;74.00;;;;;;5054710;28;20474;-66
2022/08/03 12:02:10;;;;;;;2.53;2.33;;;29.10;74.40;;;;;;5052096;28;20048;-65
2022/08/03 12:04:52;;;;;;;6.22;2.30;;;29.10;74.50;;;;;;5039078;28;20051;-65
2022/08/03 12:07:18;;;;;;;3.88;2.47;;;29.10;77.40;;;;;;5039168;28;20037;-65
2022/08/03 12:10:04;;;;;;;3.70;2.70;;;29.30;78.40;;;;;;5037805;28;20036;-65
2022/08/03 12:12:29;;;;;;;2.60;2.40;;;29.40;73.80;;;;;;5054582;28;20488;-65
2022/08/03 12:14:55;;;;;;;2.47;2.28;;;29.50;75.80;;;;;;5056968;28;20036;-65
2022/08/03 12:17:20;;;;;;;3.00;2.70;;;29.50;73.90;;;;;;5055395;28;20037;-64
2022/08/03 12:19:46;;;;;;;2.67;2.45;;;29.50;74.90;;;;;;5046454;28;20456;-65
2022/08/03 12:22:12;;;;;;;5.97;2.35;;;29.60;73.40;;;;;;5055605;28;20135;-64
2022/08/03 12:27:03;;;;;;;3.15;2.58;;;29.70;75.90;;;;;;5051642;28;20436;-64
2022/08/03 12:29:29;;;;;;;3.28;2.42;;;29.70;72.50;;;;;;5064368;28;20050;-63
2022/08/03 12:31:54;;;;;;;2.47;2.28;;;29.70;72.00;;;;;;5059015;28;20032;-63
2022/08/03 12:34:20;;;;;;;3.58;2.30;;;29.70;71.40;;;;;;5058469;28;20040;-64
2022/08/03 12:36:51;;;;;;;2.45;2.25;;;29.70;71.70;;;;;;5073231;28;20055;-62
2022/08/03 12:39:21;;;;;;;2.30;2.10;;;29.70;69.30;;;;;;5072471;28;20191;-63
2022/08/03 12:41:52;;;;;;;2.33;1.90;;;29.70;69.80;;;;;;5063457;28;20082;-63
2022/08/03 12:44:27;;;;;;;2.13;1.97;;;29.70;68.20;;;;;;5071429;28;20032;-63
2022/08/03 12:46:57;;;;;;;2.83;2.08;;;29.60;69.00;;;;;;5071496;28;20123;-64
2022/08/03 12:49:22;;;;;;;3.05;1.90;;;29.70;68.50;;;;;;5069412;28;20032;-64
2022/08/03 12:51:51;;;;;;;2.58;2.03;;;29.70;71.60;;;;;;5082039;28;20038;-65
2022/08/03 12:54:20;;;;;;;2.50;2.30;;;29.80;71.20;;;;;;5072734;28;20355;-63
2022/08/03 12:57:07;;;;;;;3.13;2.70;;;29.90;73.10;;;;;;5071911;28;20040;-65
2022/08/03 12:59:54;;;;;;;2.38;2.17;;;30.10;73.90;;;;;;5071919;28;20090;-64
2022/08/03 13:02:22;;;;;;;3.35;2.30;;;30.30;73.10;;;;;;5072269;28;20066;-64
2022/08/03 13:04:49;;;;;;;4.18;2.50;;;30.30;74.60;;;;;;5069916;28;20166;-63
2022/08/03 13:07:16;;;;;;;3.80;2.33;;;30.40;73.80;;;;;;5071974;28;20030;-64
2022/08/03 13:09:43;;;;;;;4.20;2.42;;;30.40;71.00;;;;;;5059055;28;20524;-63
2022/08/03 13:12:13;;;;;;;2.67;2.47;;;30.20;70.50;;;;;;5048900;28;20036;-62
2022/08/03 13:14:41;;;;;;;2.83;2.42;;;30.10;68.50;;;;;;5063964;28;20028;-64